Whistler, Alabama
Current Conditions -  °F | °C
As of 5:56 PM on Sunday 25 Jan 2015 (Local Time) from KMOB Reporting Station
Clear Clear  
Wind Chill: 13°   Ceiling: Unl
Heat Index: 13°   Visibility: 10mi
Dew Point:   Wind: 7mph
Humidity: 60%   Direction: 230°SW
Pressure: 29.85"   Gusts: NA
Location:  30.7534°N, 88.1122°W
Report Text: KMOB 252356Z 23006KT 10SM CLR 13/06 A2985 RMK AO2 SLP106 T01330056 10167 20128 56009
Loading
Personal Weather Stations






























Interactive Weather Map New forecast layout! Learn more

10-Day Weather Forecast

Advertisements
Track Severe Weather on mobile